MBS International Airport
KMBS : rendu visible

Aérodrome :











RETROUVEZ-NOUS SUR...

 
LOGIN :

S'inscrire | Disclaimer

   EN    FR    IT 

 









Légende :    VFR   VFR Marginal   IFR   IFR Intensif   IFR Très Intensif
Visi : 
Plafond : 
>= 8 km
>= 3000ft
5 à 8 km
1000 à 3000 ft
1500m à 5 km
500 à 1000 ft
800 à 1500m
200 à 500 ft
< 800m
< 200 ft
Symboles :   Orages  Brouillard  Fortes neiges  Fortes précipitations  Vent > 20 kt






- Altitude de l'aérodrome : 668 ft
- Code IATA : MBS


KMBS - MBS International

DERNIER METAR :
  • 031753Z 02010KT 10SM SCT024 BKN037 BKN049 23/14 A2998 RMK AO2 SLP148 T02280144 10239 20189 58002

METARs EXPIRÉS :
  • 031653Z 04010KT 10SM BKN018 BKN031 23/16 A2998 RMK AO2 SLP148 T02280156
  • 031553Z 05010KT 10SM FEW016 BKN026 OVC033 21/15 A2999 RMK AO2 SLP152 T02110150
  • 031541Z 04010KT 10SM FEW013 BKN028 OVC032 21/16 A2999 RMK AO2 T02110156
  • 031534Z 05011KT 10SM FEW011 SCT025 OVC031 21/16 A2999 RMK AO2 T02110156

TAF KMBS
Valide du 03 à 18h jusqu'au 04 à 18h UTC


031727Z 0318/0418 04010KT P6SM BKN020 OVC030
TEMPO 0319/0323 6SM SHRA OVC015
FM040200 36007KT P6SM OVC015
FM041200 34008KT P6SM BKN020
FIR KZOB / Amérique du Nord



MET'MAP, la Météo Aéronautique d'un coup d'oeil ! - Copyright ORBIFLY Décembre 2007 - Disclaimer

ORBIFLY MET'MAP TEAM :

Programmation & Développement : Alexandra Zaïnal
Sur une idée originale de : Baudouin d'Aumeries
Assistance à la programmation : Marc-Olivier Méhu
Soutien technique & logistique : Manuel Goepfert

Contact : metmap@orbifly.com




SOURCES & CREDITS :

   NOAA       Earth
Advisory